KLIT METAR and TAF | Updated Today

KLIT METAR

Bill & Hillary Clinton National Airport/Adams Field

Observation time: 14 min. ago

KLIT 301753Z 00000KT 10SM CLR 19/07 A3012 RMK AO2 SLP203 T01890067 10189 20039 58006

Need help? Read our tutorial on how to read METARs or read the parsed version below.

Bill & Hillary Clinton National Airport/Adams Field (KLIT) METAR

  • Weather conditions on Tue, 30 Nov 2021 17:53:00 +0000 (14 min. ago):
  • Present conditions: Dry
  • Clouds: Clear skies
  • Visibility: 16093 meters
  • Wind: Calm
  • Temperature: 19 celsius
  • Dew point: 7 celsius
  • Pressure: 30.12 inHg
  • Remarks: AO2 SLP203 T01890067 10189 20039 58006


Useful to know...

KLIT TAF

Bill & Hillary Clinton National Airport/Adams Field

KLIT 301723Z 3018/0118 19007KT P6SM SKC FM010000 VRB03KT P6SM SCT250
Observation time: 44 min. ago
Need help? Read our tutorial on how to read TAFs or read the parsed version below.

Parsed version of TAF for Bill & Hillary Clinton National Airport/Adams Field (KLIT)

  • From 30 November at 18:00 UTC, to day 01 of the month at 18:00 UTC
  • Clouds: No significant changes expected
  • Wind: 190 degrees at 7
  • From day 1 of the month at 00:00 UTC
  • Clouds: Scattered at 7620 meters
  • Wind: Variable at 3